sensor_id;sensor_type;location;lat;lon;timestamp;temperature;humidity
58983;DHT22;44771;49.982;8.560;2024-03-02T00:04:12;0.90;99.90
58983;DHT22;44771;49.982;8.560;2024-03-02T00:09:15;1.00;99.90
58983;DHT22;44771;49.982;8.560;2024-03-02T00:14:20;0.90;99.90
58983;DHT22;44771;49.982;8.560;2024-03-02T00:19:24;0.90;99.90
58983;DHT22;44771;49.982;8.560;2024-03-02T00:24:31;0.80;99.90
58983;DHT22;44771;49.982;8.560;2024-03-02T00:29:44;0.70;99.90
58983;DHT22;44771;49.982;8.560;2024-03-02T00:34:46;0.80;99.90
58983;DHT22;44771;49.982;8.560;2024-03-02T00:39:49;0.70;99.90
58983;DHT22;44771;49.982;8.560;2024-03-02T00:44:56;0.50;99.90
58983;DHT22;44771;49.982;8.560;2024-03-02T00:49:58;0.50;99.90
58983;DHT22;44771;49.982;8.560;2024-03-02T00:54:59;0.50;99.90
58983;DHT22;44771;49.982;8.560;2024-03-02T01:00:11;0.20;99.90
58983;DHT22;44771;49.982;8.560;2024-03-02T01:05:14;-0.10;99.90
58983;DHT22;44771;49.982;8.560;2024-03-02T01:10:17;-0.20;99.90
58983;DHT22;44771;49.982;8.560;2024-03-02T01:15:20;0.10;99.90
58983;DHT22;44771;49.982;8.560;2024-03-02T01:20:22;0.30;99.90
58983;DHT22;44771;49.982;8.560;2024-03-02T01:25:36;0.10;99.90
58983;DHT22;44771;49.982;8.560;2024-03-02T01:30:56;0.00;99.90
58983;DHT22;44771;49.982;8.560;2024-03-02T01:35:58;-0.20;99.90
58983;DHT22;44771;49.982;8.560;2024-03-02T01:41:00;-0.10;99.90
58983;DHT22;44771;49.982;8.560;2024-03-02T01:46:04;-0.10;99.90
58983;DHT22;44771;49.982;8.560;2024-03-02T01:51:06;0.00;99.90
58983;DHT22;44771;49.982;8.560;2024-03-02T01:56:08;0.50;99.90
58983;DHT22;44771;49.982;8.560;2024-03-02T02:01:12;0.70;99.90
58983;DHT22;44771;49.982;8.560;2024-03-02T02:06:14;0.40;99.90
58983;DHT22;44771;49.982;8.560;2024-03-02T02:11:16;0.00;99.90
58983;DHT22;44771;49.982;8.560;2024-03-02T02:16:19;-0.10;99.90
58983;DHT22;44771;49.982;8.560;2024-03-02T02:21:26;-0.20;99.90
58983;DHT22;44771;49.982;8.560;2024-03-02T02:26:28;-0.10;99.90
58983;DHT22;44771;49.982;8.560;2024-03-02T02:31:41;-0.10;99.90
58983;DHT22;44771;49.982;8.560;2024-03-02T02:36:47;-0.20;99.90
58983;DHT22;44771;49.982;8.560;2024-03-02T02:41:49;-0.40;99.90
58983;DHT22;44771;49.982;8.560;2024-03-02T02:46:51;-0.50;99.90
58983;DHT22;44771;49.982;8.560;2024-03-02T02:51:55;-0.40;99.90
58983;DHT22;44771;49.982;8.560;2024-03-02T02:56:56;-0.50;99.90
58983;DHT22;44771;49.982;8.560;2024-03-02T03:01:58;-0.40;99.90
58983;DHT22;44771;49.982;8.560;2024-03-02T03:07:01;-0.40;99.90
58983;DHT22;44771;49.982;8.560;2024-03-02T03:12:04;-0.50;99.90
58983;DHT22;44771;49.982;8.560;2024-03-02T03:17:06;-0.60;99.90
58983;DHT22;44771;49.982;8.560;2024-03-02T03:22:09;-0.60;99.90
58983;DHT22;44771;49.982;8.560;2024-03-02T03:27:11;-0.40;99.90
58983;DHT22;44771;49.982;8.560;2024-03-02T03:32:13;-0.60;99.90
58983;DHT22;44771;49.982;8.560;2024-03-02T03:37:16;-0.20;99.90
58983;DHT22;44771;49.982;8.560;2024-03-02T03:42:18;-0.30;99.90
58983;DHT22;44771;49.982;8.560;2024-03-02T03:47:20;-0.30;99.90
58983;DHT22;44771;49.982;8.560;2024-03-02T03:52:23;-0.30;99.90
58983;DHT22;44771;49.982;8.560;2024-03-02T03:57:25;-0.20;99.90
58983;DHT22;44771;49.982;8.560;2024-03-02T04:02:27;-0.80;99.90
58983;DHT22;44771;49.982;8.560;2024-03-02T04:07:30;-0.60;99.90
58983;DHT22;44771;49.982;8.560;2024-03-02T04:12:32;-0.60;99.90
58983;DHT22;44771;49.982;8.560;2024-03-02T04:17:38;-0.60;99.90
58983;DHT22;44771;49.982;8.560;2024-03-02T04:22:45;-0.50;99.90
58983;DHT22;44771;49.982;8.560;2024-03-02T04:27:47;-0.30;99.90
58983;DHT22;44771;49.982;8.560;2024-03-02T04:32:49;-0.20;99.90
58983;DHT22;44771;49.982;8.560;2024-03-02T04:37:52;-0.30;99.90
58983;DHT22;44771;49.982;8.560;2024-03-02T04:42:54;-0.50;99.90
58983;DHT22;44771;49.982;8.560;2024-03-02T04:47:56;-0.70;99.90
58983;DHT22;44771;49.982;8.560;2024-03-02T04:52:59;-0.80;99.90
58983;DHT22;44771;49.982;8.560;2024-03-02T04:58:01;-0.90;99.90
58983;DHT22;44771;49.982;8.560;2024-03-02T05:03:04;-0.90;99.90
58983;DHT22;44771;49.982;8.560;2024-03-02T05:08:07;-0.90;99.90
58983;DHT22;44771;49.982;8.560;2024-03-02T05:13:09;-0.90;99.90
58983;DHT22;44771;49.982;8.560;2024-03-02T05:18:11;-0.90;99.90
58983;DHT22;44771;49.982;8.560;2024-03-02T05:23:14;-0.90;99.90
58983;DHT22;44771;49.982;8.560;2024-03-02T05:28:16;-0.90;99.90
58983;DHT22;44771;49.982;8.560;2024-03-02T05:33:18;-0.90;99.90
58983;DHT22;44771;49.982;8.560;2024-03-02T05:38:21;-1.20;99.90
58983;DHT22;44771;49.982;8.560;2024-03-02T05:43:23;-1.40;99.90
58983;DHT22;44771;49.982;8.560;2024-03-02T05:48:28;-1.50;99.90
58983;DHT22;44771;49.982;8.560;2024-03-02T05:53:32;-1.50;99.90
58983;DHT22;44771;49.982;8.560;2024-03-02T05:58:34;-1.30;99.90
58983;DHT22;44771;49.982;8.560;2024-03-02T06:03:36;-1.20;99.90
58983;DHT22;44771;49.982;8.560;2024-03-02T06:08:39;-1.10;99.90
58983;DHT22;44771;49.982;8.560;2024-03-02T06:13:41;-0.90;99.90
58983;DHT22;44771;49.982;8.560;2024-03-02T06:18:45;-0.80;99.90
58983;DHT22;44771;49.982;8.560;2024-03-02T06:23:49;-0.60;99.90
58983;DHT22;44771;49.982;8.560;2024-03-02T06:28:51;-0.40;99.90
58983;DHT22;44771;49.982;8.560;2024-03-02T06:33:53;-0.30;99.90
58983;DHT22;44771;49.982;8.560;2024-03-02T06:38:56;-0.40;99.90
58983;DHT22;44771;49.982;8.560;2024-03-02T06:43:58;-0.30;99.90
58983;DHT22;44771;49.982;8.560;2024-03-02T06:49:00;-0.30;99.90
58983;DHT22;44771;49.982;8.560;2024-03-02T06:54:03;-0.20;99.90
58983;DHT22;44771;49.982;8.560;2024-03-02T06:59:05;-0.20;99.90
58983;DHT22;44771;49.982;8.560;2024-03-02T07:04:07;-0.20;99.90
58983;DHT22;44771;49.982;8.560;2024-03-02T07:09:10;-0.20;99.90
58983;DHT22;44771;49.982;8.560;2024-03-02T07:14:12;-0.40;99.90
58983;DHT22;44771;49.982;8.560;2024-03-02T07:19:14;-0.10;99.90
58983;DHT22;44771;49.982;8.560;2024-03-02T07:24:19;-0.10;99.90
58983;DHT22;44771;49.982;8.560;2024-03-02T07:29:21;0.00;99.90
58983;DHT22;44771;49.982;8.560;2024-03-02T07:34:23;0.10;99.90
58983;DHT22;44771;49.982;8.560;2024-03-02T07:39:26;0.20;99.90
58983;DHT22;44771;49.982;8.560;2024-03-02T07:44:28;0.20;99.90
58983;DHT22;44771;49.982;8.560;2024-03-02T07:49:30;0.50;99.90
58983;DHT22;44771;49.982;8.560;2024-03-02T07:54:33;0.70;99.90
58983;DHT22;44771;49.982;8.560;2024-03-02T07:59:38;1.10;99.90
58983;DHT22;44771;49.982;8.560;2024-03-02T08:04:43;1.60;99.90
58983;DHT22;44771;49.982;8.560;2024-03-02T08:09:47;2.10;99.90
58983;DHT22;44771;49.982;8.560;2024-03-02T08:14:49;2.60;99.90
58983;DHT22;44771;49.982;8.560;2024-03-02T08:19:51;3.10;99.90
58983;DHT22;44771;49.982;8.560;2024-03-02T08:24:54;3.50;99.90
58983;DHT22;44771;49.982;8.560;2024-03-02T08:29:56;3.80;99.90
58983;DHT22;44771;49.982;8.560;2024-03-02T08:34:58;4.10;99.90
58983;DHT22;44771;49.982;8.560;2024-03-02T08:40:02;4.40;99.90
58983;DHT22;44771;49.982;8.560;2024-03-02T08:45:04;4.70;99.90
58983;DHT22;44771;49.982;8.560;2024-03-02T08:50:07;4.90;99.90
58983;DHT22;44771;49.982;8.560;2024-03-02T08:55:11;5.10;99.90
58983;DHT22;44771;49.982;8.560;2024-03-02T09:00:13;5.50;99.90
58983;DHT22;44771;49.982;8.560;2024-03-02T09:05:15;5.80;99.90
58983;DHT22;44771;49.982;8.560;2024-03-02T09:10:20;6.10;99.90
58983;DHT22;44771;49.982;8.560;2024-03-02T09:15:22;6.60;99.90
58983;DHT22;44771;49.982;8.560;2024-03-02T09:20:24;7.10;99.90
58983;DHT22;44771;49.982;8.560;2024-03-02T09:25:27;7.40;99.90
58983;DHT22;44771;49.982;8.560;2024-03-02T09:30:29;7.50;99.90
58983;DHT22;44771;49.982;8.560;2024-03-02T09:35:31;7.80;99.90
58983;DHT22;44771;49.982;8.560;2024-03-02T09:40:37;7.80;99.90
58983;DHT22;44771;49.982;8.560;2024-03-02T09:45:43;8.10;99.90
58983;DHT22;44771;49.982;8.560;2024-03-02T09:50:46;8.50;99.90
58983;DHT22;44771;49.982;8.560;2024-03-02T09:55:52;8.50;99.90
58983;DHT22;44771;49.982;8.560;2024-03-02T10:00:58;8.80;99.90
58983;DHT22;44771;49.982;8.560;2024-03-02T10:06:21;9.00;99.90
58983;DHT22;44771;49.982;8.560;2024-03-02T10:11:28;9.40;99.90
58983;DHT22;44771;49.982;8.560;2024-03-02T10:16:30;9.50;99.90
58983;DHT22;44771;49.982;8.560;2024-03-02T10:21:32;10.40;99.90
58983;DHT22;44771;49.982;8.560;2024-03-02T10:26:35;10.40;99.90
58983;DHT22;44771;49.982;8.560;2024-03-02T10:31:39;10.60;99.90
58983;DHT22;44771;49.982;8.560;2024-03-02T10:36:42;10.60;99.90
58983;DHT22;44771;49.982;8.560;2024-03-02T10:41:46;10.70;99.90
58983;DHT22;44771;49.982;8.560;2024-03-02T10:46:50;11.00;99.90
58983;DHT22;44771;49.982;8.560;2024-03-02T10:51:53;11.40;99.90
58983;DHT22;44771;49.982;8.560;2024-03-02T10:56:59;11.70;99.90
58983;DHT22;44771;49.982;8.560;2024-03-02T11:02:02;12.40;97.70
58983;DHT22;44771;49.982;8.560;2024-03-02T11:07:09;13.00;95.90
58983;DHT22;44771;49.982;8.560;2024-03-02T11:12:19;13.20;92.50
58983;DHT22;44771;49.982;8.560;2024-03-02T11:17:25;12.90;92.60
58983;DHT22;44771;49.982;8.560;2024-03-02T11:22:27;12.60;92.10
58983;DHT22;44771;49.982;8.560;2024-03-02T11:28:02;12.70;93.60
58983;DHT22;44771;49.982;8.560;2024-03-02T11:33:06;12.80;91.90
58983;DHT22;44771;49.982;8.560;2024-03-02T11:38:09;12.80;91.80
58983;DHT22;44771;49.982;8.560;2024-03-02T11:43:15;12.20;91.80
58983;DHT22;44771;49.982;8.560;2024-03-02T11:48:20;12.10;92.90
58983;DHT22;44771;49.982;8.560;2024-03-02T11:53:22;12.30;92.60
58983;DHT22;44771;49.982;8.560;2024-03-02T11:58:39;12.50;92.70
58983;DHT22;44771;49.982;8.560;2024-03-02T12:03:41;13.00;86.50
58983;DHT22;44771;49.982;8.560;2024-03-02T12:08:44;13.00;89.50
58983;DHT22;44771;49.982;8.560;2024-03-02T12:13:54;13.30;84.00
58983;DHT22;44771;49.982;8.560;2024-03-02T12:18:55;13.40;80.90
58983;DHT22;44771;49.982;8.560;2024-03-02T12:23:57;13.60;81.20
58983;DHT22;44771;49.982;8.560;2024-03-02T12:29:01;13.80;84.70
58983;DHT22;44771;49.982;8.560;2024-03-02T12:34:03;13.80;77.90
58983;DHT22;44771;49.982;8.560;2024-03-02T12:39:05;14.20;77.90
58983;DHT22;44771;49.982;8.560;2024-03-02T12:44:09;14.20;78.60
58983;DHT22;44771;49.982;8.560;2024-03-02T12:49:12;15.00;80.50
58983;DHT22;44771;49.982;8.560;2024-03-02T12:54:14;14.70;76.60
58983;DHT22;44771;49.982;8.560;2024-03-02T12:59:23;14.60;77.60
58983;DHT22;44771;49.982;8.560;2024-03-02T13:04:26;15.00;76.90
58983;DHT22;44771;49.982;8.560;2024-03-02T13:09:28;15.10;75.50
58983;DHT22;44771;49.982;8.560;2024-03-02T13:14:33;14.90;75.30
58983;DHT22;44771;49.982;8.560;2024-03-02T13:19:35;15.10;78.40
58983;DHT22;44771;49.982;8.560;2024-03-02T13:24:37;15.10;74.90
58983;DHT22;44771;49.982;8.560;2024-03-02T13:29:40;14.40;78.60
58983;DHT22;44771;49.982;8.560;2024-03-02T13:34:43;14.20;77.40
58983;DHT22;44771;49.982;8.560;2024-03-02T13:39:45;14.40;79.20
58983;DHT22;44771;49.982;8.560;2024-03-02T13:44:48;14.70;81.90
58983;DHT22;44771;49.982;8.560;2024-03-02T13:49:50;14.90;81.80
58983;DHT22;44771;49.982;8.560;2024-03-02T13:54:51;14.90;77.90
58983;DHT22;44771;49.982;8.560;2024-03-02T13:59:55;15.10;75.40
58983;DHT22;44771;49.982;8.560;2024-03-02T14:04:57;14.90;76.10
58983;DHT22;44771;49.982;8.560;2024-03-02T14:09:58;14.90;75.70
58983;DHT22;44771;49.982;8.560;2024-03-02T14:15:02;14.80;76.90
58983;DHT22;44771;49.982;8.560;2024-03-02T14:20:05;14.70;78.70
58983;DHT22;44771;49.982;8.560;2024-03-02T14:25:07;14.90;78.60
58983;DHT22;44771;49.982;8.560;2024-03-02T14:30:12;14.80;77.70
58983;DHT22;44771;49.982;8.560;2024-03-02T14:35:14;14.80;76.70
58983;DHT22;44771;49.982;8.560;2024-03-02T14:40:16;14.50;77.40
58983;DHT22;44771;49.982;8.560;2024-03-02T14:45:19;14.50;79.10
58983;DHT22;44771;49.982;8.560;2024-03-02T14:50:21;14.60;80.00
58983;DHT22;44771;49.982;8.560;2024-03-02T14:55:23;14.40;79.80
58983;DHT22;44771;49.982;8.560;2024-03-02T15:00:26;14.30;79.90
58983;DHT22;44771;49.982;8.560;2024-03-02T15:05:28;14.10;80.90
58983;DHT22;44771;49.982;8.560;2024-03-02T15:10:30;14.00;81.30
58983;DHT22;44771;49.982;8.560;2024-03-02T15:15:33;14.20;82.20
58983;DHT22;44771;49.982;8.560;2024-03-02T15:20:35;14.10;82.70
58983;DHT22;44771;49.982;8.560;2024-03-02T15:25:37;14.10;83.20
58983;DHT22;44771;49.982;8.560;2024-03-02T15:30:40;14.10;82.40
58983;DHT22;44771;49.982;8.560;2024-03-02T15:35:42;14.10;82.00
58983;DHT22;44771;49.982;8.560;2024-03-02T15:40:44;14.20;80.20
58983;DHT22;44771;49.982;8.560;2024-03-02T15:45:47;14.20;82.70
58983;DHT22;44771;49.982;8.560;2024-03-02T15:50:49;14.10;80.90
58983;DHT22;44771;49.982;8.560;2024-03-02T15:55:51;14.10;79.60
58983;DHT22;44771;49.982;8.560;2024-03-02T16:00:55;13.60;85.90
58983;DHT22;44771;49.982;8.560;2024-03-02T16:05:57;13.20;86.60
58983;DHT22;44771;49.982;8.560;2024-03-02T16:10:58;13.30;81.70
58983;DHT22;44771;49.982;8.560;2024-03-02T16:16:05;13.20;84.90
58983;DHT22;44771;49.982;8.560;2024-03-02T16:21:08;13.10;83.80
58983;DHT22;44771;49.982;8.560;2024-03-02T16:26:10;12.70;85.60
58983;DHT22;44771;49.982;8.560;2024-03-02T16:31:13;12.30;86.60
58983;DHT22;44771;49.982;8.560;2024-03-02T16:36:15;12.30;85.40
58983;DHT22;44771;49.982;8.560;2024-03-02T16:41:17;12.20;86.50
58983;DHT22;44771;49.982;8.560;2024-03-02T16:46:20;12.30;85.90
58983;DHT22;44771;49.982;8.560;2024-03-02T16:51:22;11.80;88.10
58983;DHT22;44771;49.982;8.560;2024-03-02T16:56:24;11.70;88.50
58983;DHT22;44771;49.982;8.560;2024-03-02T17:01:27;11.50;88.90
58983;DHT22;44771;49.982;8.560;2024-03-02T17:06:28;11.20;89.90
58983;DHT22;44771;49.982;8.560;2024-03-02T17:11:30;11.10;90.60
58983;DHT22;44771;49.982;8.560;2024-03-02T17:16:34;10.80;91.20
58983;DHT22;44771;49.982;8.560;2024-03-02T17:21:36;10.80;91.60
58983;DHT22;44771;49.982;8.560;2024-03-02T17:26:37;10.80;91.50
58983;DHT22;44771;49.982;8.560;2024-03-02T17:31:41;10.60;92.10
58983;DHT22;44771;49.982;8.560;2024-03-02T17:36:42;10.70;92.10
58983;DHT22;44771;49.982;8.560;2024-03-02T17:41:44;10.30;92.80
58983;DHT22;44771;49.982;8.560;2024-03-02T17:46:47;9.80;94.00
58983;DHT22;44771;49.982;8.560;2024-03-02T17:51:49;9.80;95.10
58983;DHT22;44771;49.982;8.560;2024-03-02T17:56:51;10.30;94.40
58983;DHT22;44771;49.982;8.560;2024-03-02T18:01:54;10.80;93.20
58983;DHT22;44771;49.982;8.560;2024-03-02T18:06:56;11.10;92.70
58983;DHT22;44771;49.982;8.560;2024-03-02T18:11:58;11.10;92.40
58983;DHT22;44771;49.982;8.560;2024-03-02T18:17:01;11.10;92.40
58983;DHT22;44771;49.982;8.560;2024-03-02T18:22:03;11.20;91.80
58983;DHT22;44771;49.982;8.560;2024-03-02T18:27:05;11.30;91.00
58983;DHT22;44771;49.982;8.560;2024-03-02T18:32:08;11.40;90.70
58983;DHT22;44771;49.982;8.560;2024-03-02T18:37:10;11.50;90.20
58983;DHT22;44771;49.982;8.560;2024-03-02T18:42:12;11.60;90.00
58983;DHT22;44771;49.982;8.560;2024-03-02T18:47:15;11.70;89.00
58983;DHT22;44771;49.982;8.560;2024-03-02T18:52:17;11.80;88.90
58983;DHT22;44771;49.982;8.560;2024-03-02T18:57:19;11.90;90.40
58983;DHT22;44771;49.982;8.560;2024-03-02T19:02:22;11.90;90.20
58983;DHT22;44771;49.982;8.560;2024-03-02T19:07:24;11.80;90.70
58983;DHT22;44771;49.982;8.560;2024-03-02T19:12:28;11.90;90.60
58983;DHT22;44771;49.982;8.560;2024-03-02T19:17:31;11.80;91.00
58983;DHT22;44771;49.982;8.560;2024-03-02T19:22:33;11.80;91.40
58983;DHT22;44771;49.982;8.560;2024-03-02T19:27:35;11.60;91.50
58983;DHT22;44771;49.982;8.560;2024-03-02T19:32:39;11.50;92.10
58983;DHT22;44771;49.982;8.560;2024-03-02T19:37:40;11.40;92.30
58983;DHT22;44771;49.982;8.560;2024-03-02T19:42:43;11.40;92.70
58983;DHT22;44771;49.982;8.560;2024-03-02T19:47:46;11.30;92.90
58983;DHT22;44771;49.982;8.560;2024-03-02T19:52:48;11.20;93.30
58983;DHT22;44771;49.982;8.560;2024-03-02T19:57:50;11.20;93.60
58983;DHT22;44771;49.982;8.560;2024-03-02T20:02:53;11.10;93.90
58983;DHT22;44771;49.982;8.560;2024-03-02T20:07:55;11.00;94.10
58983;DHT22;44771;49.982;8.560;2024-03-02T20:12:57;10.80;94.50
58983;DHT22;44771;49.982;8.560;2024-03-02T20:18:00;10.90;94.70
58983;DHT22;44771;49.982;8.560;2024-03-02T20:23:02;10.70;95.10
58983;DHT22;44771;49.982;8.560;2024-03-02T20:28:04;10.50;95.60
58983;DHT22;44771;49.982;8.560;2024-03-02T20:33:07;10.30;95.90
58983;DHT22;44771;49.982;8.560;2024-03-02T20:38:09;10.00;96.50
58983;DHT22;44771;49.982;8.560;2024-03-02T20:43:11;9.50;97.70
58983;DHT22;44771;49.982;8.560;2024-03-02T20:48:14;9.10;98.30
58983;DHT22;44771;49.982;8.560;2024-03-02T20:53:16;8.60;99.50
58983;DHT22;44771;49.982;8.560;2024-03-02T20:58:18;8.00;99.90
58983;DHT22;44771;49.982;8.560;2024-03-02T21:03:21;7.80;99.90
58983;DHT22;44771;49.982;8.560;2024-03-02T21:08:23;7.70;99.90
58983;DHT22;44771;49.982;8.560;2024-03-02T21:13:25;7.50;99.90
58983;DHT22;44771;49.982;8.560;2024-03-02T21:18:28;7.30;99.90
58983;DHT22;44771;49.982;8.560;2024-03-02T21:23:30;7.30;99.90
58983;DHT22;44771;49.982;8.560;2024-03-02T21:28:31;7.10;99.90
58983;DHT22;44771;49.982;8.560;2024-03-02T21:33:34;7.30;99.90
58983;DHT22;44771;49.982;8.560;2024-03-02T21:38:37;7.30;99.90
58983;DHT22;44771;49.982;8.560;2024-03-02T21:43:39;6.90;99.90
58983;DHT22;44771;49.982;8.560;2024-03-02T21:48:42;6.70;99.90
58983;DHT22;44771;49.982;8.560;2024-03-02T21:53:44;6.70;99.90
58983;DHT22;44771;49.982;8.560;2024-03-02T21:58:45;6.90;99.90
58983;DHT22;44771;49.982;8.560;2024-03-02T22:03:49;7.00;99.90
58983;DHT22;44771;49.982;8.560;2024-03-02T22:08:50;6.80;99.90
58983;DHT22;44771;49.982;8.560;2024-03-02T22:13:52;6.70;99.90
58983;DHT22;44771;49.982;8.560;2024-03-02T22:18:55;6.40;99.90
58983;DHT22;44771;49.982;8.560;2024-03-02T22:23:57;6.50;99.90
58983;DHT22;44771;49.982;8.560;2024-03-02T22:28:59;6.00;99.90
58983;DHT22;44771;49.982;8.560;2024-03-02T22:34:02;6.30;99.90
58983;DHT22;44771;49.982;8.560;2024-03-02T22:39:04;6.30;99.90
58983;DHT22;44771;49.982;8.560;2024-03-02T22:44:06;6.60;99.90
58983;DHT22;44771;49.982;8.560;2024-03-02T22:49:09;6.90;99.90
58983;DHT22;44771;49.982;8.560;2024-03-02T22:54:11;6.60;99.90
58983;DHT22;44771;49.982;8.560;2024-03-02T22:59:13;6.60;99.90
58983;DHT22;44771;49.982;8.560;2024-03-02T23:04:16;6.50;99.90
58983;DHT22;44771;49.982;8.560;2024-03-02T23:09:18;6.40;99.90
58983;DHT22;44771;49.982;8.560;2024-03-02T23:14:20;6.30;99.90
58983;DHT22;44771;49.982;8.560;2024-03-02T23:19:23;6.20;99.90
58983;DHT22;44771;49.982;8.560;2024-03-02T23:24:25;6.10;99.90
58983;DHT22;44771;49.982;8.560;2024-03-02T23:29:27;6.00;99.90
58983;DHT22;44771;49.982;8.560;2024-03-02T23:34:30;5.90;99.90
58983;DHT22;44771;49.982;8.560;2024-03-02T23:39:32;6.00;99.90
58983;DHT22;44771;49.982;8.560;2024-03-02T23:44:33;6.40;99.90
58983;DHT22;44771;49.982;8.560;2024-03-02T23:49:37;6.30;99.90
58983;DHT22;44771;49.982;8.560;2024-03-02T23:54:38;6.30;99.90
58983;DHT22;44771;49.982;8.560;2024-03-02T23:59:40;6.20;99.90
